Ginys del Meteocat
Campanya meteocatpedra

Dades de l'estació automàtica Riudecanyes

?
?
Resum diari 22:30 TU
Dades diàries de l'estació meteorològica
Temperatura mitjana 14.9 °C
Temperatura màxima 20.2 °C 12:38 TU
Temperatura mínima 12.1 °C 6:30 TU
Humitat relativa mitjana 68%
Precipitació acumulada 0.0 mm
Ratxa màxima del vent (10 m) 42.1 km/h - 298º 2:44 TU
Irradiació solar global 9.8 MJ/m2

El tram horari està expressat en Temps Universal (TU). Cal sumar una hora en horari d'hivern i dues en horari d'estiu per passar a l'hora oficial.

Riudecanyes

Metadades estació meteorol´gica
Municipi Riudecanyes
Comarca Baix Camp
Altitud 170 m
Data alta 06.02.2019
Estat actual Operativa
Dades de període
Període
TU
TM
°C
TX
°C
TN
°C
HRM
%
PPT
mm
VVM (10 m)
km/h
DVM (10 m)
graus
VVX (10 m)
km/h
RS
W/m2
00:00 - 00:30 14.8 14.9 14.7 59 0.0 18.4 309 34.2 0
00:30 - 01:00 14.5 14.8 14.2 63 0.0 19.4 308 32.4 0
01:00 - 01:30 13.9 14.1 13.7 68 0.0 20.9 307 36.4 0
01:30 - 02:00 13.7 13.9 13.6 68 0.0 22.0 304 41.8 0
02:00 - 02:30 13.6 13.7 13.4 69 0.0 21.6 305 40.3 0
02:30 - 03:00 13.2 13.4 13.0 71 0.0 22.7 303 42.1 0
03:00 - 03:30 12.9 13.0 12.8 73 0.0 21.6 306 40.7 0
03:30 - 04:00 12.6 12.9 12.5 74 0.0 17.3 312 37.1 0
04:00 - 04:30 12.6 12.7 12.5 74 0.0 18.0 310 36.0 0
04:30 - 05:00 12.5 12.6 12.4 74 0.0 22.0 307 41.0 0
05:00 - 05:30 12.3 12.4 12.2 76 0.0 19.1 308 34.2 0
05:30 - 06:00 12.3 12.3 12.2 76 0.0 20.5 308 41.0 0
06:00 - 06:30 12.2 12.2 12.1 76 0.0 20.5 308 40.0 1
06:30 - 07:00 12.2 12.2 12.1 76 0.0 17.3 310 32.4 19
07:00 - 07:30 12.3 12.4 12.2 74 0.0 16.9 313 30.6 43
07:30 - 08:00 12.8 13.1 12.5 71 0.0 16.6 310 29.5 123
08:00 - 08:30 12.8 12.9 12.7 72 0.0 19.4 308 32.4 123
08:30 - 09:00 13.0 13.1 12.9 71 0.0 17.3 311 31.3 147
09:00 - 09:30 13.0 13.1 13.0 71 0.0 16.2 312 28.1 79
09:30 - 10:00 13.2 13.4 13.0 71 0.0 15.1 311 30.6 154
10:00 - 10:30 13.8 14.3 13.4 70 0.0 14.4 312 28.4 262
10:30 - 11:00 15.4 15.7 14.4 64 0.0 14.4 303 26.3 473
11:00 - 11:30 16.6 17.9 15.8 59 0.0 13.0 300 23.0 578
11:30 - 12:00 18.3 18.7 17.6 52 0.0 7.9 296 16.2 656
12:00 - 12:30 19.0 19.6 18.7 48 0.0 7.2 284 14.4 652
12:30 - 13:00 19.6 20.2 19.1 44 0.0 4.3 133 14.4 518
13:00 - 13:30 18.7 19.1 18.6 48 0.0 5.8 204 13.7 177
13:30 - 14:00 19.0 19.4 18.6 48 0.0 6.8 282 16.6 416
14:00 - 14:30 19.2 19.4 19.0 47 0.0 4.3 233 14.4 334
14:30 - 15:00 18.8 19.4 18.6 50 0.0 11.5 180 16.6 251
15:00 - 15:30 18.5 19.0 18.1 52 0.0 9.4 168 19.4 253
15:30 - 16:00 17.9 18.4 17.6 57 0.0 7.2 181 14.0 130
16:00 - 16:30 17.6 17.8 17.5 60 0.0 4.7 160 13.3 77
16:30 - 17:00 17.1 17.4 16.8 64 0.0 3.6 149 10.1 35
17:00 - 17:30 16.3 16.8 15.6 69 0.0 2.2 86 5.0 1
17:30 - 18:00 15.3 15.5 15.1 74 0.0 4.3 346 6.1 0
18:00 - 18:30 15.0 15.4 14.7 76 0.0 5.0 331 9.0 0
18:30 - 19:00 14.6 14.9 14.2 76 0.0 7.6 331 13.0 0
19:00 - 19:30 14.4 14.5 14.2 76 0.0 7.9 332 13.0 0
19:30 - 20:00 14.2 14.5 14.1 77 0.0 8.3 322 14.4 0
20:00 - 20:30 14.4 14.7 14.1 77 0.0 6.8 322 10.8 0
20:30 - 21:00 14.2 14.4 14.1 79 0.0 7.6 331 11.5 0
21:00 - 21:30 14.2 14.3 14.1 79 0.0 7.6 328 11.2 0
21:30 - 22:00 14.4 14.6 14.2 79 0.0 4.3 337 9.4 0
22:00 - 22:30 14.4 14.5 14.2 80 0.0 2.5 325 8.6 0
22:30 - 23:00 14.3 14.5 14.0 81 0.0 4.0 352 9.7 0

Les dades en taronja només han passat un control de qualitat automàtic. Resta pendent la seva validació definitiva.